createdAt,value
2022-11-25T00:01:53.819Z,21.80
2022-11-25T00:04:23.653Z,19.02
2022-11-25T00:06:53.415Z,26.83
2022-11-25T00:09:25.867Z,27.35
2022-11-25T00:11:55.638Z,28.30
2022-11-25T00:14:25.673Z,21.58
2022-11-25T00:16:55.447Z,25.48
2022-11-25T00:19:25.255Z,25.65
2022-11-25T00:21:55.012Z,17.73
2022-11-25T00:24:27.543Z,25.35
2022-11-25T00:26:57.411Z,22.45
2022-11-25T00:29:27.212Z,25.33
2022-11-25T00:31:57.035Z,16.83
2022-11-25T00:34:26.909Z,24.33
2022-11-25T00:36:56.695Z,30.15
2022-11-25T00:39:29.024Z,26.15
2022-11-25T00:42:11.308Z,22.17
2022-11-25T00:44:42.249Z,22.77
2022-11-25T00:47:13.844Z,23.90
2022-11-25T00:49:45.515Z,28.92
2022-11-25T00:52:17.943Z,29.75
2022-11-25T00:54:51.144Z,24.30
2022-11-25T00:57:22.589Z,26.58
2022-11-25T00:59:52.444Z,24.63
2022-11-25T01:02:22.596Z,22.52
2022-11-25T01:04:52.468Z,21.15
2022-11-25T01:07:22.487Z,19.88
2022-11-25T01:09:55.276Z,26.88
2022-11-25T01:12:25.159Z,25.15
2022-11-25T01:14:55.036Z,25.67
2022-11-25T01:17:24.789Z,20.35
2022-11-25T01:19:54.560Z,22.20
2022-11-25T01:22:24.431Z,21.67
2022-11-25T01:24:56.977Z,18.67
2022-11-25T01:27:26.768Z,25.05
2022-11-25T01:29:56.571Z,20.42
2022-11-25T01:32:26.392Z,22.58
2022-11-25T01:34:56.168Z,21.65
2022-11-25T01:37:25.893Z,20.45
2022-11-25T01:39:58.284Z,23.73
2022-11-25T01:42:32.120Z,17.10
2022-11-25T01:45:35.007Z,23.75
2022-11-25T01:48:13.534Z,17.77
2022-11-25T01:50:44.920Z,20.13
2022-11-25T01:53:16.754Z,19.42
2022-11-25T01:55:55.522Z,21.65
2022-11-25T01:58:30.197Z,20.67
2022-11-25T02:01:00.175Z,21.02
2022-11-25T02:03:35.512Z,18.27
2022-11-25T02:06:10.291Z,16.63
2022-11-25T02:08:41.284Z,18.67
2022-11-25T02:11:14.188Z,20.38
2022-11-25T02:13:44.539Z,18.67
2022-11-25T02:16:14.709Z,16.85
2022-11-25T02:18:44.727Z,20.70
2022-11-25T02:21:16.695Z,19.88
2022-11-25T02:23:54.664Z,21.75
2022-11-25T02:26:27.487Z,21.38
2022-11-25T02:28:57.829Z,19.92
2022-11-25T02:31:27.744Z,21.73
2022-11-25T02:33:57.555Z,21.30
2022-11-25T02:36:27.339Z,17.42
2022-11-25T02:39:00.596Z,17.83
2022-11-25T02:41:35.285Z,19.92
2022-11-25T02:44:06.034Z,18.67
2022-11-25T02:46:36.082Z,17.77
2022-11-25T02:49:09.385Z,16.90
2022-11-25T02:51:43.808Z,16.00
2022-11-25T02:54:14.432Z,21.08
2022-11-25T02:56:47.365Z,19.63
2022-11-25T02:59:17.203Z,19.20
2022-11-25T03:01:47.162Z,20.60
2022-11-25T03:04:17.187Z,18.80
2022-11-25T03:06:47.160Z,18.00
2022-11-25T03:09:17.037Z,18.90
2022-11-25T03:12:01.998Z,15.40
2022-11-25T03:17:01.640Z,15.00
2022-11-25T03:19:31.448Z,15.82
2022-11-25T03:22:01.248Z,13.30
2022-11-25T03:24:31.199Z,17.02
2022-11-25T03:27:03.649Z,19.63
2022-11-25T03:29:33.663Z,19.55
2022-11-25T03:32:09.147Z,14.40
2022-11-25T03:34:39.531Z,14.57
2022-11-25T03:37:09.437Z,19.40
2022-11-25T03:39:39.336Z,20.20
2022-11-25T03:42:11.815Z,20.65
2022-11-25T03:44:41.554Z,19.58
2022-11-25T03:47:11.401Z,16.27
2022-11-25T03:49:41.217Z,20.02
2022-11-25T03:52:11.039Z,16.88
2022-11-25T03:54:40.852Z,15.40
2022-11-25T03:57:13.495Z,20.15
2022-11-25T03:59:43.328Z,18.13
2022-11-25T04:02:14.315Z,18.63
2022-11-25T04:04:44.240Z,14.52
2022-11-25T04:07:14.109Z,14.38
2022-11-25T04:09:43.968Z,16.20
2022-11-25T04:12:28.954Z,14.70
2022-11-25T04:17:28.409Z,16.92
2022-11-25T04:19:58.167Z,14.13
2022-11-25T04:22:27.969Z,16.63
2022-11-25T04:24:57.815Z,13.50
2022-11-25T04:27:30.365Z,14.90
2022-11-25T04:30:00.264Z,16.33
2022-11-25T04:32:30.080Z,17.42
2022-11-25T04:34:59.871Z,16.55
2022-11-25T04:37:29.653Z,19.67
2022-11-25T04:39:59.454Z,19.83
2022-11-25T04:42:36.593Z,15.85
2022-11-25T04:45:24.399Z,18.15
2022-11-25T04:47:54.575Z,20.30
2022-11-25T04:50:26.136Z,20.23
2022-11-25T04:52:56.040Z,18.45
2022-11-25T04:55:25.815Z,20.13
2022-11-25T04:57:58.311Z,22.92
2022-11-25T05:00:25.516Z,18.73
2022-11-25T05:02:55.470Z,19.50
2022-11-25T05:05:25.527Z,18.45
2022-11-25T05:07:55.415Z,17.65
2022-11-25T05:10:25.289Z,17.90
2022-11-25T05:12:57.747Z,17.65
2022-11-25T05:15:27.538Z,23.80
2022-11-25T05:17:57.498Z,20.00
2022-11-25T05:20:27.328Z,21.65
2022-11-25T05:22:57.134Z,17.08
2022-11-25T05:25:27.268Z,18.15
2022-11-25T05:27:59.812Z,14.45
2022-11-25T05:30:29.648Z,22.83
2022-11-25T05:32:59.540Z,16.88
2022-11-25T05:35:29.405Z,19.10
2022-11-25T05:38:00.972Z,20.48
2022-11-25T05:40:30.803Z,18.88
2022-11-25T05:43:06.248Z,20.05
2022-11-25T05:45:36.069Z,15.90
2022-11-25T05:48:06.147Z,28.42
2022-11-25T05:50:35.975Z,20.58
2022-11-25T05:53:05.796Z,22.13
2022-11-25T05:55:35.581Z,22.15
2022-11-25T05:58:08.372Z,18.48
2022-11-25T06:00:38.514Z,21.10
2022-11-25T06:03:08.319Z,21.80
2022-11-25T06:05:38.436Z,20.92
2022-11-25T06:08:08.174Z,17.20
2022-11-25T06:10:40.568Z,19.02
2022-11-25T06:13:13.065Z,17.52
2022-11-25T06:15:44.914Z,20.02
2022-11-25T06:18:15.723Z,22.02
2022-11-25T06:20:46.104Z,17.27
2022-11-25T06:23:15.920Z,20.08
2022-11-25T06:25:45.755Z,21.85
2022-11-25T06:28:18.196Z,23.23
2022-11-25T06:30:48.120Z,19.30
2022-11-25T06:33:17.895Z,22.23
2022-11-25T06:35:47.672Z,20.65
2022-11-25T06:38:17.497Z,18.85
2022-11-25T06:40:47.246Z,20.58
2022-11-25T06:43:19.629Z,19.67
2022-11-25T06:45:49.470Z,20.13
2022-11-25T06:48:19.213Z,18.85
2022-11-25T06:50:57.643Z,21.77
2022-11-25T06:53:27.692Z,21.45
2022-11-25T06:56:12.500Z,18.08
2022-11-25T06:58:45.959Z,23.05
2022-11-25T07:01:18.160Z,23.88
2022-11-25T07:03:49.892Z,17.73
2022-11-25T07:06:21.102Z,26.42
2022-11-25T07:08:51.560Z,21.58
2022-11-25T07:11:24.301Z,24.33
2022-11-25T07:13:59.739Z,20.05
2022-11-25T07:16:30.514Z,20.98
2022-11-25T07:19:02.456Z,18.25
2022-11-25T07:21:34.080Z,23.70
2022-11-25T07:24:06.176Z,20.60
2022-11-25T07:26:38.168Z,18.17
2022-11-25T07:32:05.796Z,22.75
2022-11-25T07:34:40.014Z,21.30
2022-11-25T07:37:09.823Z,18.50
2022-11-25T07:39:39.878Z,20.20
2022-11-25T07:42:09.881Z,15.07
2022-11-25T07:44:42.359Z,16.50
2022-11-25T07:47:12.135Z,16.55
2022-11-25T07:49:42.046Z,16.30
2022-11-25T07:52:12.042Z,20.52
2022-11-25T07:54:41.821Z,22.75
2022-11-25T07:57:11.726Z,17.75
2022-11-25T07:59:44.531Z,19.27
2022-11-25T08:02:14.401Z,14.90
2022-11-25T08:04:44.207Z,17.13
2022-11-25T08:07:31.928Z,15.32
2022-11-25T08:10:04.817Z,18.05
2022-11-25T08:12:34.925Z,18.02
2022-11-25T08:15:07.819Z,19.75
2022-11-25T08:17:37.612Z,15.05
2022-11-25T08:20:09.046Z,19.75
2022-11-25T08:22:38.873Z,22.60
2022-11-25T08:25:09.753Z,20.15
2022-11-25T08:27:39.692Z,18.00
2022-11-25T08:30:13.635Z,23.50
2022-11-25T08:32:43.690Z,19.63
2022-11-25T08:35:13.458Z,17.20
2022-11-25T08:37:43.209Z,14.07
2022-11-25T08:40:14.635Z,16.10
2022-11-25T08:42:44.505Z,11.88
2022-11-25T08:45:16.876Z,18.00
2022-11-25T08:47:46.745Z,19.55
2022-11-25T08:50:17.930Z,20.80
2022-11-25T08:52:47.937Z,15.20
2022-11-25T08:55:17.732Z,17.23
2022-11-25T08:57:47.540Z,13.63
2022-11-25T09:00:21.204Z,13.23
2022-11-25T09:02:51.240Z,16.30
2022-11-25T09:05:21.151Z,15.23
2022-11-25T09:07:51.095Z,14.30
2022-11-25T09:10:21.007Z,13.70
2022-11-25T09:12:50.838Z,14.55
2022-11-25T09:15:23.241Z,15.93
2022-11-25T09:18:00.838Z,17.38
2022-11-25T09:20:31.081Z,17.10
2022-11-25T09:23:02.631Z,16.73
2022-11-25T09:25:32.965Z,15.60
2022-11-25T09:28:02.730Z,14.85
2022-11-25T09:30:35.352Z,15.38
2022-11-25T09:33:05.182Z,16.17
2022-11-25T09:35:34.960Z,13.50
2022-11-25T09:38:04.741Z,17.15
2022-11-25T09:40:43.101Z,13.75
2022-11-25T09:43:39.240Z,13.35
2022-11-25T09:46:36.051Z,10.95
2022-11-25T09:49:17.154Z,18.85
2022-11-25T09:52:00.156Z,13.70
2022-11-25T09:54:37.244Z,16.40
2022-11-25T09:57:24.274Z,12.45
2022-11-25T10:00:06.399Z,11.20
2022-11-25T10:02:44.269Z,27.10
2022-11-25T10:05:20.943Z,11.27
2022-11-25T10:07:55.488Z,15.27
2022-11-25T10:12:58.652Z,17.98
2022-11-25T10:15:32.951Z,14.18
2022-11-25T10:18:09.478Z,17.30
2022-11-25T10:20:43.540Z,13.48
2022-11-25T10:23:22.274Z,11.38
2022-11-25T10:25:59.421Z,13.23
2022-11-25T10:28:36.516Z,12.18
2022-11-25T10:31:13.933Z,14.13
2022-11-25T10:33:49.229Z,12.32
2022-11-25T10:36:22.597Z,12.82
2022-11-25T10:38:59.260Z,12.75
2022-11-25T10:41:31.987Z,13.20
2022-11-25T10:44:01.721Z,15.30
2022-11-25T10:47:11.577Z,9.70
2022-11-25T10:49:38.236Z,13.02
2022-11-25T10:52:13.499Z,9.55
2022-11-25T10:54:44.092Z,12.48
2022-11-25T10:57:21.931Z,9.15
2022-11-25T10:59:59.129Z,13.68
2022-11-25T11:02:31.265Z,11.65
2022-11-25T11:05:07.161Z,13.32
2022-11-25T11:07:39.110Z,12.88
2022-11-25T11:10:22.003Z,13.13
2022-11-25T11:13:00.299Z,16.00
2022-11-25T11:15:31.837Z,12.70
2022-11-25T11:18:03.531Z,13.50
2022-11-25T11:20:36.808Z,12.95
2022-11-25T11:23:14.021Z,16.10
2022-11-25T11:25:45.188Z,14.70
2022-11-25T11:28:32.910Z,15.73
2022-11-25T11:31:06.466Z,14.55
2022-11-25T11:33:40.436Z,16.45
2022-11-25T11:36:31.660Z,17.50
2022-11-25T11:39:20.569Z,16.75
2022-11-25T11:41:57.184Z,16.95
2022-11-25T11:44:36.759Z,15.27
2022-11-25T11:47:17.739Z,17.42
2022-11-25T11:50:23.323Z,12.57
2022-11-25T11:55:42.405Z,13.30
2022-11-25T11:58:24.147Z,19.15
2022-11-25T12:01:17.987Z,26.52
2022-11-25T12:04:00.811Z,11.85
2022-11-25T12:06:36.375Z,16.15
2022-11-25T12:09:16.751Z,12.65
2022-11-25T12:11:55.340Z,12.48
2022-11-25T12:14:35.581Z,11.75
2022-11-25T12:17:10.200Z,9.23
2022-11-25T12:19:47.234Z,17.27
2022-11-25T12:22:24.249Z,11.00
2022-11-25T12:25:04.159Z,11.27
2022-11-25T12:27:39.928Z,10.85
2022-11-25T12:30:14.581Z,9.98
2022-11-25T12:32:53.900Z,8.50
2022-11-25T12:35:33.481Z,11.60
2022-11-25T12:38:12.232Z,9.77
2022-11-25T12:40:50.853Z,11.32
2022-11-25T12:43:30.203Z,13.95
2022-11-25T12:46:10.184Z,13.60
2022-11-25T12:48:43.854Z,11.73
2022-11-25T12:51:26.316Z,11.47
2022-11-25T12:54:06.964Z,11.38
2022-11-25T12:56:52.963Z,11.40
2022-11-25T12:59:38.677Z,16.60
2022-11-25T13:02:32.053Z,19.17
2022-11-25T13:08:21.560Z,12.00
2022-11-25T13:10:55.664Z,16.77
2022-11-25T13:11:05.327Z,12.95
2022-11-25T13:13:48.983Z,14.20
2022-11-25T13:16:21.004Z,16.33
2022-11-25T13:18:51.748Z,11.25
2022-11-25T13:21:24.083Z,12.48
2022-11-25T13:23:56.396Z,15.75
2022-11-25T13:26:50.951Z,10.85
2022-11-25T13:30:05.448Z,9.07
2022-11-25T13:32:47.481Z,13.50
2022-11-25T13:35:49.637Z,13.10
2022-11-25T13:39:04.493Z,12.18
2022-11-25T13:41:48.502Z,32.63
2022-11-25T13:44:25.383Z,10.30
2022-11-25T13:46:56.859Z,7.57
2022-11-25T13:49:32.858Z,9.73
2022-11-25T13:52:06.457Z,12.02
2022-11-25T13:54:40.364Z,8.30
2022-11-25T13:57:29.956Z,11.40
2022-11-25T14:00:02.922Z,9.10
2022-11-25T14:02:41.970Z,11.57
2022-11-25T14:05:42.662Z,9.38
2022-11-25T14:08:32.328Z,23.00
2022-11-25T14:11:20.648Z,9.95
2022-11-25T14:14:07.748Z,12.43
2022-11-25T14:16:55.953Z,9.60
2022-11-25T14:19:52.217Z,8.13
2022-11-25T14:22:44.491Z,11.65
2022-11-25T14:25:22.359Z,11.50
2022-11-25T14:28:03.809Z,5.18
2022-11-25T14:30:35.302Z,9.60
2022-11-25T14:33:07.753Z,7.93
2022-11-25T14:35:45.655Z,8.18
2022-11-25T14:38:22.368Z,10.32
2022-11-25T14:40:56.828Z,9.15
2022-11-25T14:43:28.624Z,14.40
2022-11-25T14:49:45.227Z,10.80
2022-11-25T14:52:20.484Z,8.90
2022-11-25T14:54:54.283Z,6.88
2022-11-25T14:57:27.771Z,9.75
2022-11-25T15:00:00.620Z,8.67
2022-11-25T15:02:34.839Z,11.43
2022-11-25T15:05:11.679Z,5.70
2022-11-25T15:07:44.715Z,10.88
2022-11-25T15:10:50.317Z,10.60
2022-11-25T15:13:33.138Z,14.00
2022-11-25T15:16:08.975Z,12.63
2022-11-25T15:18:39.686Z,10.52
2022-11-25T15:21:09.643Z,15.85
2022-11-25T15:23:40.870Z,8.13
2022-11-25T15:26:20.535Z,10.65
2022-11-25T15:28:57.382Z,9.93
2022-11-25T15:31:32.090Z,14.63
2022-11-25T15:34:07.296Z,11.98
2022-11-25T15:36:37.191Z,8.90
2022-11-25T15:39:18.838Z,9.90
2022-11-25T15:41:50.108Z,11.88
2022-11-25T15:44:26.927Z,11.77
2022-11-25T15:47:02.451Z,9.30
2022-11-25T15:49:32.331Z,5.38
2022-11-25T15:52:07.103Z,14.68
2022-11-25T15:54:43.868Z,10.93
2022-11-25T15:57:20.448Z,9.30
2022-11-25T16:00:07.043Z,11.15
2022-11-25T16:02:50.899Z,10.25
2022-11-25T16:05:28.620Z,15.40
2022-11-25T16:08:31.264Z,14.02
2022-11-25T16:11:03.028Z,9.65
2022-11-25T16:13:35.614Z,13.93
2022-11-25T16:16:22.278Z,12.20
2022-11-25T16:19:12.962Z,12.85
2022-11-25T16:21:55.799Z,11.63
2022-11-25T16:24:49.225Z,15.52
2022-11-25T16:27:24.793Z,9.35
2022-11-25T16:29:57.942Z,14.07
2022-11-25T16:32:32.043Z,10.30
2022-11-25T16:35:12.944Z,15.20
2022-11-25T16:37:47.080Z,13.30
2022-11-25T16:40:20.106Z,16.95
2022-11-25T16:42:53.397Z,13.82
2022-11-25T16:45:26.331Z,12.45
2022-11-25T16:47:59.024Z,15.75
2022-11-25T16:50:28.825Z,12.40
2022-11-25T16:52:58.579Z,15.10
2022-11-25T16:55:28.380Z,13.77
2022-11-25T16:57:58.208Z,14.02
2022-11-25T17:00:28.221Z,12.02
2022-11-25T17:03:00.641Z,11.50
2022-11-25T17:05:30.905Z,15.63
2022-11-25T17:08:00.912Z,17.58
2022-11-25T17:10:30.948Z,11.15
2022-11-25T17:13:01.687Z,11.02
2022-11-25T17:15:36.569Z,11.55
2022-11-25T17:18:10.551Z,19.20
2022-11-25T17:20:40.472Z,11.90
2022-11-25T17:23:15.832Z,13.05
2022-11-25T17:25:48.518Z,10.18
2022-11-25T17:28:22.045Z,10.52
2022-11-25T17:30:51.977Z,9.98
2022-11-25T17:33:24.559Z,12.38
2022-11-25T17:35:54.428Z,11.45
2022-11-25T17:38:24.358Z,12.98
2022-11-25T17:40:55.757Z,9.13
2022-11-25T17:43:30.372Z,18.35
2022-11-25T17:46:03.281Z,11.13
2022-11-25T17:48:36.275Z,15.13
2022-11-25T17:51:07.749Z,17.08
2022-11-25T17:53:38.854Z,16.05
2022-11-25T17:56:20.451Z,17.52
2022-11-25T17:58:50.297Z,11.00
2022-11-25T18:01:20.497Z,12.68
2022-11-25T18:03:54.029Z,15.00
2022-11-25T18:06:24.284Z,14.95
2022-11-25T18:08:54.070Z,18.00
2022-11-25T18:11:24.023Z,13.07
2022-11-25T18:13:55.796Z,14.57
2022-11-25T18:16:26.117Z,18.88
2022-11-25T18:18:58.568Z,13.77
2022-11-25T18:21:28.925Z,16.45
2022-11-25T18:24:00.468Z,16.73
2022-11-25T18:26:30.495Z,13.85
2022-11-25T18:29:00.349Z,16.92
2022-11-25T18:31:30.728Z,14.52
2022-11-25T18:34:03.139Z,10.77
2022-11-25T18:36:33.009Z,13.38
2022-11-25T18:39:02.789Z,13.15
2022-11-25T18:41:32.644Z,12.88
2022-11-25T18:44:04.507Z,13.18
2022-11-25T18:46:38.660Z,15.48
2022-11-25T18:49:16.241Z,12.63
2022-11-25T18:51:46.873Z,15.90
2022-11-25T18:54:16.736Z,14.77
2022-11-25T18:56:48.259Z,12.30
2022-11-25T18:59:21.123Z,11.45
2022-11-25T19:01:50.976Z,18.58
2022-11-25T19:04:23.359Z,18.10
2022-11-25T19:06:53.290Z,16.20
2022-11-25T19:09:23.167Z,12.07
2022-11-25T19:11:56.378Z,13.35
2022-11-25T19:14:32.615Z,12.43
2022-11-25T19:17:05.154Z,12.75
2022-11-25T19:19:39.238Z,16.65
2022-11-25T19:22:15.331Z,11.85
2022-11-25T19:24:45.920Z,13.05
2022-11-25T19:27:21.123Z,16.40
2022-11-25T19:29:50.936Z,12.73
2022-11-25T19:32:24.388Z,10.90
2022-11-25T19:35:01.024Z,12.35
2022-11-25T19:37:32.114Z,12.10
2022-11-25T19:40:02.847Z,19.02
2022-11-25T19:42:33.233Z,13.55
2022-11-25T19:45:03.473Z,14.25
2022-11-25T19:47:33.533Z,24.00
2022-11-25T19:50:08.548Z,11.63
2022-11-25T19:52:41.300Z,15.68
2022-11-25T19:55:17.115Z,15.30
2022-11-25T19:57:47.168Z,13.27
2022-11-25T20:00:18.749Z,12.32
2022-11-25T20:02:51.567Z,11.57
2022-11-25T20:05:27.480Z,13.18
2022-11-25T20:07:57.740Z,11.68
2022-11-25T20:10:30.308Z,11.35
2022-11-25T20:13:01.001Z,14.60
2022-11-25T20:15:30.918Z,18.13
2022-11-25T20:18:03.968Z,13.40
2022-11-25T20:20:38.789Z,11.75
2022-11-25T20:23:11.292Z,13.45
2022-11-25T20:25:45.227Z,14.10
2022-11-25T20:28:19.907Z,10.68
2022-11-25T20:30:50.579Z,12.77
2022-11-25T20:33:24.367Z,11.18
2022-11-25T20:36:05.868Z,15.18
2022-11-25T20:38:38.065Z,17.90
2022-11-25T20:41:08.089Z,19.63
2022-11-25T20:43:41.463Z,20.08
2022-11-25T20:46:18.359Z,18.15
2022-11-25T20:48:48.522Z,15.27
2022-11-25T20:51:23.128Z,20.27
2022-11-25T20:56:25.925Z,16.88
2022-11-25T20:58:56.830Z,15.98
2022-11-25T21:01:26.824Z,18.42
2022-11-25T21:03:56.714Z,14.10
2022-11-25T21:06:37.812Z,18.50
2022-11-25T21:09:19.047Z,14.23
2022-11-25T21:11:49.316Z,15.60
2022-11-25T21:14:21.322Z,21.92
2022-11-25T21:16:51.163Z,13.35
2022-11-25T21:19:21.005Z,13.13
2022-11-25T21:21:54.880Z,17.50
2022-11-25T21:24:32.461Z,15.07
2022-11-25T21:27:04.354Z,15.13
2022-11-25T21:29:35.145Z,14.77
2022-11-25T21:32:05.083Z,12.70
2022-11-25T21:34:35.255Z,14.80
2022-11-25T21:37:08.488Z,15.02
2022-11-25T21:39:38.877Z,14.48
2022-11-25T21:42:15.399Z,9.43
2022-11-25T21:44:45.793Z,16.27
2022-11-25T21:47:16.816Z,12.73
2022-11-25T21:49:47.008Z,14.95
2022-11-25T21:52:20.088Z,10.07
2022-11-25T21:54:50.324Z,11.73
2022-11-25T21:57:22.735Z,14.15
2022-11-25T21:59:52.733Z,11.77
2022-11-25T22:02:25.220Z,9.05
2022-11-25T22:04:55.560Z,14.65
2022-11-25T22:07:31.007Z,9.18
2022-11-25T22:10:01.122Z,30.80
2022-11-25T22:12:39.587Z,27.77
2022-11-25T22:15:16.135Z,18.42
2022-11-25T22:17:46.888Z,13.75
2022-11-25T22:20:30.821Z,13.77
2022-11-25T22:23:03.893Z,20.50
2022-11-25T22:25:35.366Z,10.32
2022-11-25T22:28:05.116Z,17.10
2022-11-25T22:30:34.963Z,13.85
2022-11-25T22:33:06.134Z,10.48
2022-11-25T22:35:35.937Z,11.25
2022-11-25T22:38:15.295Z,11.25
2022-11-25T22:40:46.689Z,13.95
2022-11-25T22:43:20.004Z,12.65
2022-11-25T22:45:50.465Z,14.68
2022-11-25T22:48:23.526Z,17.17
2022-11-25T22:50:53.334Z,13.52
2022-11-25T22:53:26.240Z,11.48
2022-11-25T22:55:58.133Z,15.70
2022-11-25T22:58:28.859Z,18.45
2022-11-25T23:00:59.489Z,14.77
2022-11-25T23:03:33.960Z,14.15
2022-11-25T23:06:04.005Z,21.67
2022-11-25T23:08:36.387Z,16.90
2022-11-25T23:11:06.489Z,20.55
2022-11-25T23:13:36.327Z,15.73
2022-11-25T23:16:07.685Z,14.60
2022-11-25T23:18:40.766Z,15.68
2022-11-25T23:21:19.419Z,18.77
2022-11-25T23:23:52.521Z,15.07
2022-11-25T23:26:22.431Z,20.13
2022-11-25T23:28:52.382Z,14.20
2022-11-25T23:31:24.061Z,20.45
2022-11-25T23:33:54.448Z,14.73
2022-11-25T23:36:27.555Z,18.13
2022-11-25T23:39:01.927Z,14.93
2022-11-25T23:41:33.322Z,16.17
2022-11-25T23:44:08.716Z,15.35
2022-11-25T23:46:39.175Z,12.98
2022-11-25T23:49:18.040Z,12.85
2022-11-25T23:51:47.996Z,14.50
2022-11-25T23:54:22.949Z,17.50
2022-11-25T23:56:52.772Z,17.10
2022-11-25T23:59:23.530Z,15.68
